Date,TemperatureHighF,TemperatureAvgF,TemperatureLowF,DewpointHighF,DewpointAvgF,DewpointLowF,HumidityHigh,HumidityAvg,HumidityLow,PressureMaxIn,PressureMinIn,WindSpeedMaxMPH,WindSpeedAvgMPH,GustSpeedMaxMPH,PrecipitationSumIn
2013-1-1,37,29,18,32,23,8,91,78,63,30.14,30.02,4,0,4,0.02
2013-1-2,41,22,14,19,7,-4,67,54,19,30.25,30.12,7,0,7,0.00
2013-1-3,46,24,14,19,8,-3,66,53,19,30.28,30.17,10,1,10,0.04
2013-1-4,41,29,26,19,15,11,65,56,38,30.33,30.23,12,2,12,0.02
2013-1-5,49,32,22,25,17,12,70,55,35,30.39,30.17,6,0,6,0.14
2013-1-6,38,33,26,28,23,18,82,67,55,30.31,30.02,9,1,9,0.04
2013-1-7,51,31,26,27,20,15,77,64,37,30.49,30.26,6,0,6,0.02
2013-1-8,59,36,25,32,21,14,69,58,35,30.36,30.25,8,0,8,0.00
2013-1-9,56,42,36,43,30,21,89,63,43,30.51,30.23,12,2,12,0.00
2013-1-10,42,38,33,31,28,23,67,65,63,30.52,30.20,2,0,2,0.00
2013-1-11,65,51,38,53,43,28,91,75,60,30.20,29.92,12,1,12,0.00
2013-1-12,67,58,51,63,54,48,96,89,74,30.07,29.90,10,1,10,0.00
2013-1-13,64,60,42,59,54,38,92,80,71,30.05,29.83,16,2,16,0.00
2013-1-14,42,34,28,39,26,18,90,72,57,30.40,30.04,13,0,13,0.00
2013-1-15,35,29,22,24,19,14,73,66,57,30.38,30.06,4,0,4,0.00
2013-1-16,32,30,29,28,25,21,84,80,69,30.08,29.94,7,0,7,0.00
2013-1-17,32,30,29,26,24,22,84,76,73,30.20,30.07,4,0,4,0.00
2013-1-18,42,29,17,17,12,-1,62,49,20,30.53,30.25,10,2,10,0.00
2013-1-19,61,43,32,22,17,7,55,39,19,30.25,29.89,16,4,16,0.00
2013-1-20,47,34,22,28,7,-9,56,34,19,30.18,29.87,18,3,18,0.00
2013-1-21,25,19,8,11,1,-17,55,44,32,30.19,30.01,14,2,14,0.00
2013-1-22,20,9,3,-10,-18,-24,42,28,19,30.35,30.18,11,1,11,0.00
2013-1-23,19,13,6,4,-11,-26,60,35,19,30.34,30.08,58,0,58,0.00
2013-1-24,34,18,10,5,-2,-18,65,45,19,30.54,30.08,6,0,6,0.00
2013-1-25,24,18,14,10,2,-4,65,49,41,30.49,30.03,3,0,3,0.00
2013-1-26,30,24,20,18,12,6,73,62,48,30.46,30.12,7,0,7,0.00
2013-1-27,48,28,15,22,11,1,59,49,25,30.51,30.27,3,0,3,0.00
2013-1-28,51,42,31,50,39,19,96,86,59,30.27,30.04,10,2,10,0.00
2013-1-29,73,58,51,55,50,46,96,77,42,30.07,29.73,13,2,13,0.00
2013-1-30,64,56,35,53,48,30,89,76,60,29.73,29.30,18,3,18,0.00
2013-1-31,35,26,20,30,14,7,82,61,42,29.91,29.44,17,4,17,0.00
2013-2-1,24,12,5,11,-7,-22,70,43,19,30.38,29.91,16,2,16,0.00
2013-2-2,25,17,7,18,6,-10,78,61,45,30.35,29.99,11,1,11,0.00
2013-2-3,25,21,17,18,12,3,79,67,52,30.10,29.90,8,0,8,0.00
2013-2-4,31,23,15,24,13,4,82,65,45,30.12,29.86,8,0,8,0.00
2013-2-5,33,30,28,27,23,18,84,75,58,29.99,29.87,3,0,3,0.00
2013-2-6,51,34,26,24,18,1,76,57,19,30.30,29.99,5,0,5,0.00
2013-2-7,66,39,24,32,21,9,67,51,26,30.27,29.93,4,0,4,0.00
2013-2-8,41,33,25,34,25,15,84,71,63,30.28,29.80,12,2,13,0.00
2013-2-9,55,31,22,22,11,-6,64,45,19,30.43,30.28,6,0,6,0.00
2013-2-10,49,37,24,37,19,6,74,50,37,30.30,29.88,9,0,9,0.00
2013-2-11,57,47,38,45,33,22,88,61,31,30.01,29.78,18,4,18,0.00
2013-2-12,55,39,30,27,19,3,62,46,19,30.14,29.92,10,1,10,0.00
2013-2-13,39,32,26,25,20,12,79,61,42,29.93,29.74,4,0,4,0.00
2013-2-14,45,36,25,40,30,19,90,78,68,29.97,29.86,8,1,8,0.00
2013-2-15,39,33,27,31,25,20,77,72,64,30.10,29.97,6,0,7,0.00
2013-2-16,34,24,17,20,11,3,74,60,34,30.10,29.97,11,1,11,0.00
2013-2-17,26,16,10,6,0,-7,58,47,27,30.27,30.05,7,1,7,0.00
2013-2-18,54,33,15,25,12,-2,47,41,28,30.29,29.82,14,1,14,0.00
2013-2-19,48,33,21,36,23,7,83,68,40,30.06,29.70,21,3,21,0.00
2013-2-20,21,19,16,8,4,0,60,52,44,30.28,30.05,10,1,10,0.00
2013-2-21,46,25,18,19,8,-2,62,49,19,30.34,30.21,5,0,5,0.00
2013-2-22,42,34,25,36,25,9,83,71,51,30.23,29.91,5,0,5,0.00
2013-2-23,52,38,30,32,27,16,85,65,35,29.99,29.88,7,0,7,0.00
2013-2-24,33,29,25,18,15,13,68,58,48,30.18,29.92,6,0,6,0.00
2013-2-25,61,37,24,26,15,1,62,44,19,30.22,30.00,6,0,6,0.00
2013-2-26,42,36,31,38,27,14,89,70,46,30.01,29.52,6,0,6,0.00
2013-2-27,42,37,32,39,33,28,98,84,77,29.73,29.54,10,1,10,0.00
2013-2-28,35,32,30,30,28,25,88,84,80,29.91,29.67,11,1,11,0.00
2013-3-1,34,31,27,29,23,15,88,74,61,30.03,29.90,4,0,4,0.00
2013-3-2,30,27,24,21,17,14,73,66,61,30.04,29.97,8,0,8,0.00
2013-3-3,28,24,21,16,13,9,74,64,51,30.08,30.01,6,0,6,0.00
2013-3-4,51,30,17,19,10,-2,69,47,19,30.18,30.06,21,0,21,0.00
2013-3-5,42,35,30,25,21,12,73,55,42,30.09,29.53,3,0,3,0.00
2013-3-6,41,35,31,32,27,25,80,75,66,30.19,29.52,5,0,5,0.00
2013-3-7,49,35,30,30,25,23,77,67,44,30.33,30.17,7,0,7,0.00
2013-3-8,58,39,27,29,21,16,70,52,27,30.46,30.33,21,0,21,0.00
2013-3-9,72,44,26,31,22,14,67,45,19,30.41,30.10,5,0,5,0.00
2013-3-10,78,59,47,32,26,22,43,30,19,30.12,29.90,9,1,9,0.00
2013-3-11,61,54,42,48,34,26,85,52,27,29.91,29.65,11,1,11,0.00
2013-3-12,42,36,33,34,27,24,78,69,60,30.03,29.81,21,1,21,0.00
2013-3-13,33,30,26,27,20,12,83,68,51,30.24,29.97,12,2,12,0.00
2013-3-14,48,36,23,15,9,0,57,36,19,30.26,30.16,10,1,10,0.00
2013-3-15,54,40,28,35,22,10,72,49,40,30.16,29.86,21,0,21,0.00
2013-3-16,59,45,35,48,38,27,87,76,61,30.01,29.62,10,1,10,0.00
2013-3-17,40,35,32,27,24,22,73,65,55,30.18,30.01,3,0,3,0.00
2013-3-18,51,40,33,49,36,22,98,83,61,30.07,29.64,10,1,10,0.00
2013-3-19,42,37,31,39,18,-4,89,51,19,30.04,29.77,17,3,17,0.00
2013-3-20,41,32,22,16,7,-7,48,36,19,30.04,29.89,15,2,15,0.00
2013-3-21,30,25,19,12,7,0,55,46,31,30.00,29.94,9,1,9,0.00
2013-3-22,50,32,19,17,8,-3,61,39,19,30.06,29.97,9,1,9,0.00
2013-3-23,60,39,25,21,10,-2,56,33,19,30.08,29.96,6,0,6,0.00
2013-3-24,40,34,30,27,19,11,76,56,38,29.97,29.45,6,0,6,0.00
2013-3-25,35,33,31,30,28,26,88,82,74,29.85,29.42,21,1,21,0.00
2013-3-26,44,35,31,31,26,18,88,72,46,30.16,29.85,9,1,9,0.00
2013-3-27,44,36,31,28,22,17,78,59,40,30.25,30.15,9,1,9,0.00
2013-3-28,52,39,27,24,20,17,66,49,32,30.30,30.23,14,1,14,0.00
2013-3-29,60,43,29,28,21,16,66,44,23,30.31,30.18,8,0,8,0.00
2013-3-30,68,48,32,29,19,7,64,36,19,30.26,29.97,6,0,6,0.00
2013-3-31,53,47,43,44,30,5,77,54,19,29.98,29.76,21,0,21,0.00
2013-4-1,51,42,32,37,19,-2,74,44,19,30.09,29.77,14,2,14,0.00
2013-4-2,48,34,23,7,2,-6,42,26,19,30.24,30.08,11,1,11,0.00
2013-4-3,58,37,24,15,4,-6,41,26,19,30.39,30.23,14,1,14,0.00
2013-4-4,57,41,27,15,3,-10,34,21,19,30.38,29.99,8,0,8,0.00
2013-4-5,67,48,34,24,12,-2,47,25,19,30.17,29.96,10,1,10,0.00
2013-4-6,67,47,30,23,12,-2,42,26,19,30.27,29.96,6,0,6,0.00
2013-4-7,74,63,52,42,31,11,47,31,19,30.01,29.90,16,3,16,0.00
2013-4-8,76,64,53,48,44,39,72,49,27,30.02,29.89,20,2,20,0.00
2013-4-9,82,65,55,52,47,44,69,54,33,30.11,29.98,13,2,13,0.00
2013-4-10,84,75,62,56,52,48,65,47,34,29.97,29.81,17,3,17,0.00
2013-4-11,78,69,58,56,52,49,81,57,41,29.91,29.56,9,1,9,0.00
2013-4-12,62,52,42,56,44,30,89,74,56,29.92,29.50,10,2,10,0.00
2013-4-13,58,46,38,34,31,28,71,56,38,30.06,29.91,13,2,13,0.00
2013-4-14,76,53,36,38,31,26,73,48,19,30.15,29.95,6,1,6,0.00
2013-4-15,72,63,55,48,42,32,56,47,39,30.05,29.94,12,2,12,0.00
2013-4-16,70,60,57,53,48,44,70,64,55,30.13,30.01,11,2,11,0.00
2013-4-17,76,62,56,61,55,52,90,78,54,30.24,30.04,5,0,5,0.00
2013-4-18,82,63,58,57,55,53,86,75,39,30.06,29.88,14,1,14,0.00
2013-4-19,74,55,39,56,40,27,85,59,37,29.95,29.50,16,4,16,0.00
2013-4-20,52,42,35,29,24,18,75,50,32,30.39,29.94,16,3,16,0.00
2013-4-21,67,47,31,27,19,4,62,37,19,30.55,30.39,11,1,11,0.00
2013-4-22,78,57,39,36,24,4,49,30,19,30.41,30.17,9,1,9,0.00
2013-4-23,77,61,45,36,28,20,40,29,19,30.19,29.92,12,2,12,0.00
2013-4-24,63,48,38,45,36,30,83,66,35,30.21,29.86,14,2,14,0.00
2013-4-25,60,46,34,38,30,26,86,57,30,30.36,30.21,13,2,13,0.00
2013-4-26,72,53,36,33,26,21,61,37,19,30.47,30.33,6,0,6,0.00
2013-4-27,78,61,43,34,28,22,49,31,19,30.36,30.12,6,0,6,0.00
2013-4-28,66,58,54,56,47,35,83,68,40,30.12,29.87,7,0,7,0.00
2013-4-29,68,59,56,57,54,50,91,81,63,30.02,29.90,6,0,6,0.00
2013-4-30,86,67,52,58,50,44,89,60,29,30.11,30.00,7,0,7,0.00
2013-5-1,89,71,55,54,48,44,75,49,26,30.25,30.10,6,0,6,0.00
2013-5-2,81,68,56,51,46,41,59,45,33,30.29,30.14,7,1,7,0.00
2013-5-3,86,69,56,48,40,26,68,40,19,30.18,30.05,13,1,13,0.00
2013-5-4,78,64,53,42,37,33,55,38,25,30.12,30.00,9,1,9,0.00
2013-5-5,82,65,51,40,34,23,62,35,19,30.07,29.92,9,0,9,0.00
2013-5-6,73,62,57,53,44,27,81,53,28,30.01,29.96,5,0,5,0.00
2013-5-7,75,62,55,59,53,50,86,74,48,29.98,29.93,6,0,6,0.00
2013-5-8,76,64,55,56,52,49,87,69,41,29.99,29.90,3,0,3,0.00
2013-5-9,82,68,54,59,51,47,87,59,32,30.03,29.95,8,0,8,0.00
2013-5-10,74,65,60,61,56,49,90,74,54,30.00,29.83,10,0,10,0.00
2013-5-11,61,57,48,58,51,41,91,81,66,29.95,29.82,8,1,8,0.00
2013-5-12,56,48,39,41,33,27,85,59,35,30.12,29.94,13,1,13,0.00
2013-5-13,59,48,40,33,30,26,74,51,31,30.19,30.10,8,0,8,0.00
2013-5-14,73,57,41,47,37,30,69,50,29,30.17,29.85,13,1,13,0.00
2013-5-15,86,71,64,55,53,47,65,54,34,29.86,29.83,14,3,14,0.00
2013-5-16,75,70,63,61,58,56,81,66,56,30.01,29.92,7,0,7,0.00
2013-5-17,83,70,63,63,58,55,88,69,40,30.12,30.00,5,0,5,0.00
2013-5-18,82,70,62,64,58,54,81,69,50,30.11,30.00,5,0,5,0.00
2013-5-19,82,71,61,65,60,55,85,71,52,30.06,29.95,7,0,7,0.00
2013-5-20,84,72,65,68,64,60,89,76,56,30.05,29.93,5,0,5,0.00
2013-5-21,87,76,68,67,64,60,89,68,42,29.98,29.84,12,0,12,0.00
2013-5-22,84,73,64,63,58,54,81,62,42,29.90,29.78,11,1,11,0.00
2013-5-23,74,65,51,64,56,43,89,75,51,30.02,29.82,10,1,10,0.00
2013-5-24,61,52,44,43,37,33,76,59,38,30.32,30.02,8,1,8,0.00
2013-5-25,68,53,38,43,36,32,82,56,34,30.38,30.23,6,0,6,0.00
2013-5-26,71,58,42,40,33,24,71,43,19,30.34,30.22,5,0,5,0.00
2013-5-27,69,58,52,49,42,34,74,56,39,30.26,30.04,6,0,6,0.00
2013-5-28,82,72,60,60,55,47,73,57,41,30.10,29.97,9,1,9,0.00
2013-5-29,87,76,68,60,57,54,69,52,35,30.11,30.01,21,1,21,0.00
2013-5-30,89,78,68,63,58,53,71,52,31,30.20,30.07,7,0,7,0.00
2013-5-31,88,76,67,62,58,54,76,56,36,30.13,29.98,14,1,14,0.00
2013-6-1,84,74,67,66,62,61,84,68,50,30.02,29.81,21,1,21,0.00
2013-6-2,78,73,67,65,58,54,81,62,45,29.92,29.81,10,1,10,0.00
2013-6-3,69,65,57,56,54,46,75,67,57,30.08,29.90,3,0,3,0.00
2013-6-4,77,63,47,47,44,39,75,52,31,30.19,30.07,6,0,6,0.00
2013-6-5,83,70,55,57,50,42,68,52,35,30.13,29.90,4,0,4,0.00
2013-6-6,72,68,64,66,62,57,85,82,59,29.93,29.78,4,0,4,0.00
2013-6-7,68,62,58,59,56,53,89,81,67,29.91,29.81,4,0,4,0.00
2013-6-8,76,66,56,56,53,50,86,66,45,30.10,29.91,5,0,5,0.00
2013-6-9,84,72,63,63,59,54,80,64,45,30.13,29.99,5,0,5,0.00
2013-6-10,76,70,66,66,63,59,89,80,63,29.99,29.80,6,0,6,0.00
2013-6-11,81,71,63,64,61,59,92,72,51,29.96,29.85,14,0,14,0.00
2013-6-12,88,78,67,70,66,60,83,67,52,29.95,29.76,7,0,7,0.00
2013-6-13,79,70,64,69,61,53,89,74,57,29.89,29.60,18,0,18,0.00
2013-6-14,78,66,58,59,54,52,81,67,47,30.04,29.89,5,0,5,0.00
2013-6-16,73,71,69,64,63,63,83,78,72,29.99,29.96,2,0,2,0.00
2013-6-17,83,73,66,69,65,61,96,76,53,30.01,29.91,5,0,5,0.00
2013-6-18,77,70,64,67,63,58,88,80,69,30.00,29.88,5,0,5,0.00
2013-6-19,79,68,56,58,52,44,82,59,33,30.15,29.99,2,0,2,0.00
2013-6-20,84,71,57,57,50,45,75,50,32,30.24,30.15,4,0,4,0.00
2013-6-21,87,73,61,60,54,50,71,55,33,30.26,30.18,4,0,4,0.00
2013-6-23,89,83,74,64,60,57,58,45,36,30.14,30.07,6,0,6,0.00
2013-6-24,89,78,68,66,62,58,76,59,39,30.18,30.03,6,0,6,0.00
2013-6-25,89,79,68,68,66,61,82,64,48,30.09,29.92,12,1,12,0.00
2013-6-26,86,76,69,68,66,61,84,71,52,29.97,29.83,6,0,6,0.00
2013-6-27,81,72,68,70,66,64,89,82,66,29.84,29.70,6,0,6,0.00
2013-6-28,81,73,67,70,65,58,90,77,56,29.71,29.58,6,0,6,0.00
2013-6-29,81,70,62,64,60,57,88,73,49,29.71,29.60,3,0,6,0.00
2013-6-30,83,72,65,66,62,58,86,71,53,29.86,29.70,2,0,2,0.00
2013-7-1,83,73,66,67,63,61,87,73,52,29.97,29.82,3,0,3,0.00
2013-7-2,82,74,67,67,65,63,87,73,58,30.07,29.92,5,0,5,0.00
2013-7-3,85,75,70,68,65,63,84,73,51,30.17,30.05,5,0,5,0.00
2013-7-4,78,73,70,68,66,66,88,81,71,30.22,30.14,2,0,2,0.00
2013-7-5,79,72,68,70,67,64,90,84,70,30.18,30.12,11,0,11,0.00
2013-7-6,85,75,70,72,68,65,91,78,56,30.18,30.05,7,0,7,0.00
2013-7-7,79,72,66,67,64,59,87,76,61,30.15,30.04,8,0,8,0.00
2013-7-8,82,73,65,70,66,60,89,79,64,30.16,30.08,4,0,4,0.00
2013-7-9,87,74,70,73,68,65,90,82,61,30.15,30.02,4,0,9,0.00
2013-7-10,89,78,71,75,71,67,91,79,55,30.06,29.86,10,0,10,0.00
2013-7-12,82,73,59,63,59,54,85,63,46,30.12,30.04,5,0,5,0.00
2013-7-13,86,74,63,66,62,57,85,67,49,30.20,30.09,4,0,4,0.00
2013-7-14,90,79,69,69,66,62,84,65,48,30.28,30.18,7,0,7,0.00
2013-7-15,92,82,72,69,66,64,78,61,41,30.35,30.26,4,0,4,0.00
2013-7-16,94,83,73,74,68,64,80,62,42,30.35,30.27,0,0,0,0.00
2013-7-17,93,83,75,75,70,67,81,64,47,30.33,30.18,4,0,4,0.00
2013-7-18,94,84,75,75,70,67,79,64,44,30.23,30.07,5,0,5,0.00
2013-7-19,91,80,72,74,69,63,82,70,50,30.08,29.94,7,0,7,0.00
2013-7-20,78,73,71,72,68,64,89,84,75,29.99,29.89,6,0,6,0.00
2013-7-21,84,75,70,71,68,66,89,79,61,30.02,29.92,0,0,0,0.00
2013-7-22,75,72,71,70,68,66,89,85,80,29.97,29.80,6,0,6,0.00
2013-7-23,85,75,70,71,68,63,92,78,56,29.84,29.72,8,0,8,0.00
2013-7-24,77,70,62,65,59,52,86,70,51,30.01,29.81,5,0,5,0.00
2013-7-25,79,67,56,58,53,50,82,62,41,30.10,30.01,4,0,4,0.00
2013-7-26,82,71,59,60,54,51,79,59,38,30.11,30.00,3,0,4,0.00
2013-7-27,73,69,67,65,61,58,82,75,67,30.01,29.86,7,0,7,0.00
2013-7-28,73,66,59,61,54,48,84,66,44,30.07,29.88,8,0,8,0.00
2013-7-29,75,66,56,57,53,49,80,64,48,30.21,30.06,8,0,8,0.00
2013-7-30,81,70,59,61,56,52,82,63,43,30.25,30.15,2,0,2,0.00
2013-7-31,76,70,67,66,61,57,83,72,63,30.16,29.97,5,0,5,0.00
2013-8-1,82,72,67,68,62,56,91,72,49,29.97,29.91,6,0,6,0.00
2013-8-2,81,71,62,63,58,56,84,66,43,30.03,29.95,6,0,6,0.00
2013-8-3,76,70,66,67,63,58,86,79,68,30.03,29.98,6,0,6,0.00
2013-8-4,78,69,62,62,56,50,84,66,44,30.13,30.02,3,0,4,0.00
2013-8-5,79,67,57,59,53,50,82,63,40,30.16,30.01,4,0,4,0.00
2013-8-6,85,72,61,59,56,54,78,59,38,30.04,29.97,5,0,5,0.00
2013-8-7,87,75,67,70,64,58,79,70,55,29.99,29.92,11,0,11,0.00
2013-8-8,87,77,72,72,69,66,87,77,58,30.00,29.92,5,0,5,0.00
2013-8-9,80,73,68,70,67,60,90,81,67,30.06,29.92,4,0,4,0.00
2013-8-10,84,74,66,66,63,61,86,70,49,30.14,30.05,3,0,3,0.00
2013-8-11,85,75,66,69,64,61,85,70,54,30.12,30.03,3,0,3,0.00
2013-8-12,87,76,66,67,63,60,85,66,43,30.09,29.91,5,0,5,0.00
2013-8-13,80,71,60,66,61,48,87,71,50,30.03,29.84,8,0,8,0.00
2013-8-14,72,62,54,52,49,47,78,63,43,30.17,30.03,3,0,3,0.00
2013-8-15,78,65,54,57,50,48,83,61,36,30.20,30.10,4,0,4,0.00
2013-8-16,81,68,58,57,51,48,75,57,36,30.17,30.12,4,0,4,0.00
2013-8-17,84,70,60,60,55,50,76,61,41,30.22,30.16,4,0,4,0.00
2013-8-18,71,67,64,64,60,53,84,77,65,30.22,30.13,1,0,1,0.00
2013-8-19,83,72,66,66,61,54,89,71,42,30.17,30.09,3,0,3,0.00
2013-8-20,89,73,63,67,60,56,84,64,35,30.22,30.12,0,0,0,0.00
2013-8-21,86,72,66,65,62,58,82,72,48,30.21,30.09,2,0,2,0.00
2013-8-22,87,72,64,70,64,60,88,76,52,30.15,30.02,6,0,6,0.00
2013-8-23,86,74,68,68,64,58,89,72,48,30.17,30.03,5,0,5,0.00
2013-8-24,87,72,62,62,57,54,77,61,40,30.30,30.17,3,0,3,0.00
2013-8-25,86,73,63,62,56,54,81,59,37,30.37,30.25,5,0,5,0.00
2013-8-26,88,75,64,65,60,54,75,61,43,30.28,30.07,7,0,7,0.00
2013-8-27,82,75,70,71,67,63,84,77,67,30.09,29.97,6,0,6,0.00
2013-8-28,88,78,73,72,70,66,84,75,57,29.98,29.88,8,0,8,0.00
2013-8-29,86,76,70,71,67,64,87,75,56,30.07,29.97,2,0,2,0.00
2013-8-30,86,74,68,71,66,63,87,76,54,30.03,29.88,6,0,6,0.00
2013-8-31,86,76,69,70,67,64,87,74,55,29.93,29.81,9,1,9,0.00
2013-9-1,86,76,71,68,67,64,87,74,53,29.87,29.80,5,0,5,0.00
2013-9-2,87,75,70,70,66,62,88,76,53,29.89,29.80,5,0,5,0.00
2013-9-3,76,66,60,64,56,51,83,70,47,30.08,29.89,5,0,5,0.00
2013-9-4,82,66,55,58,54,49,85,66,41,30.16,30.07,6,0,6,0.00
2013-9-5,83,69,60,63,56,46,82,65,47,30.22,30.12,4,0,4,0.00
2013-9-6,81,64,53,52,47,45,82,57,29,30.27,30.13,3,0,21,0.00
2013-9-7,86,68,54,59,52,46,79,60,36,30.13,29.97,6,0,6,0.00
2013-9-8,86,75,68,67,62,57,77,65,51,30.05,29.95,4,0,4,0.00
2013-9-9,89,75,63,69,63,57,85,68,45,30.09,30.01,7,0,7,0.00
2013-9-10,93,80,72,72,68,64,82,68,49,30.16,30.06,7,1,7,0.00
2013-9-11,90,78,73,72,67,63,83,71,47,30.18,30.04,9,0,9,0.00
2013-9-12,76,72,68,70,66,63,89,82,74,30.04,29.86,7,0,7,0.00
2013-9-13,69,61,53,64,51,45,85,70,51,30.08,29.87,6,0,6,0.00
2013-9-14,75,58,47,48,44,42,82,62,33,30.19,30.07,5,0,5,0.00
2013-9-15,71,59,51,56,48,42,79,67,48,30.18,30.06,4,0,6,0.00
2013-9-16,77,63,56,58,53,47,85,71,44,30.30,30.06,4,0,4,0.00
2013-9-17,81,61,52,55,49,46,82,67,37,30.36,30.21,4,0,4,0.00
2013-9-18,70,62,55,59,54,48,83,75,64,30.21,30.10,3,0,3,0.00
2013-9-19,70,66,63,65,62,58,88,85,81,30.14,30.02,4,0,4,0.00
2013-9-20,86,74,67,69,65,63,93,77,52,30.05,29.83,6,0,6,0.00
2013-9-21,74,67,58,64,60,50,89,80,59,29.86,29.72,9,0,9,0.00
2013-9-22,70,58,51,52,48,43,85,70,46,30.04,29.85,5,0,5,0.00
2013-9-23,73,55,46,49,44,41,86,68,38,30.86,30.04,4,0,4,0.00
2013-9-24,80,57,44,50,44,38,84,65,32,30.83,30.66,2,0,4,0.00
2013-9-25,74,60,50,55,49,44,82,67,48,30.68,30.59,4,0,4,0.00
2013-9-26,89,66,54,56,49,44,82,60,25,30.80,30.64,3,0,3,0.00
2013-9-27,88,65,52,55,47,44,78,57,26,30.89,30.79,4,0,4,0.00
2013-9-28,89,66,53,58,50,46,82,61,28,30.93,30.80,5,0,5,0.00
2013-9-29,74,64,56,58,54,49,80,70,57,30.82,30.71,5,0,5,0.00
2013-9-30,75,65,60,59,57,54,84,75,57,30.76,30.69,6,0,6,0.00
2013-10-1,83,68,58,64,56,53,88,70,39,30.82,30.73,7,0,7,0.00
2013-10-2,89,71,60,65,59,54,86,68,39,30.84,30.75,5,0,5,0.00
2013-10-3,88,72,67,68,63,60,85,73,43,30.82,30.74,6,0,6,0.00
2013-10-4,90,72,64,68,62,58,91,73,36,30.82,30.75,8,0,8,0.00
2013-10-5,85,74,67,67,63,61,83,70,50,30.80,30.68,9,1,9,0.00
2013-10-6,87,73,58,66,61,52,88,69,39,30.68,30.44,15,1,15,0.00
2013-10-7,65,55,49,52,45,39,86,69,44,30.87,30.51,8,1,8,0.00
2013-10-8,82,58,47,50,42,39,82,59,25,30.99,30.86,5,0,5,0.00
2013-10-9,86,60,48,48,40,34,77,52,19,30.99,30.88,4,0,4,0.00
2013-10-10,88,62,48,50,41,36,71,50,25,30.90,30.78,4,0,4,0.00
2013-10-11,89,64,51,53,45,40,71,52,23,30.82,30.73,4,0,4,0.00
2013-10-12,78,64,56,58,52,48,80,67,46,30.85,30.75,21,0,21,0.00
2013-10-13,73,63,57,60,56,51,84,77,60,30.98,30.84,4,0,4,0.00
2013-10-14,85,64,54,56,51,48,83,66,33,31.02,30.90,6,0,6,0.00
2013-10-15,74,62,54,59,53,48,86,74,55,30.92,30.67,5,0,5,0.00
2013-10-16,65,63,58,61,58,54,90,85,76,30.69,30.59,7,1,8,0.00
2013-10-17,58,52,48,54,48,44,87,84,81,30.66,30.53,5,0,6,0.00
2013-10-18,72,54,43,47,41,37,90,67,33,30.76,30.66,10,1,10,0.00
2013-10-19,53,48,41,46,41,36,86,76,63,30.70,30.49,11,1,11,0.00
2013-10-20,70,49,36,43,36,33,90,66,30,30.76,30.68,10,1,10,0.00
2013-10-21,74,54,41,41,35,31,73,53,23,30.75,30.59,10,2,10,0.00
2013-10-22,64,48,36,35,29,23,79,52,24,30.74,30.59,8,1,8,0.00
2013-10-23,44,40,38,34,33,31,81,74,60,30.71,30.47,8,0,8,0.00
2013-10-24,52,38,34,39,30,27,84,76,49,30.91,30.69,10,0,10,0.00
2013-10-25,58,40,30,36,27,21,83,64,35,31.09,30.90,21,1,21,0.00
2013-10-26,49,40,31,28,23,20,66,51,34,30.97,30.63,13,2,13,0.00
2013-10-27,53,41,35,35,27,25,76,58,34,30.82,30.73,0,0,0,0.00
2013-10-28,74,49,34,39,29,23,75,49,19,30.99,30.80,6,0,6,0.00
2013-10-29,64,50,38,42,33,27,77,54,33,31.07,30.93,4,0,4,0.00
2013-10-30,68,56,50,54,45,34,81,66,52,30.93,30.77,5,0,5,0.00
2013-10-31,66,61,58,57,55,51,89,80,61,30.77,30.12,13,2,13,0.00
2013-11-1,67,58,52,56,44,38,87,63,40,30.43,30.08,19,3,19,0.00
2013-11-2,54,50,45,42,38,34,75,63,54,30.74,30.42,8,1,8,0.00
2013-11-3,70,47,38,39,33,24,82,61,26,31.11,30.74,5,0,5,0.00
2013-11-4,60,45,33,32,28,22,66,52,33,31.16,31.04,6,0,6,0.00
2013-11-5,64,53,47,36,32,30,54,47,34,31.15,30.97,6,0,6,0.00
2013-11-6,74,58,47,56,41,28,88,54,38,30.97,30.63,13,3,14,0.00
2013-11-7,58,45,36,55,33,19,88,65,31,30.89,30.64,15,2,15,0.00
2013-11-8,57,40,32,34,26,21,83,60,33,31.04,30.86,13,1,13,0.00
2013-11-9,65,48,35,32,22,16,60,40,19,30.96,30.69,20,4,20,0.00
2013-11-10,53,44,34,34,25,20,62,48,32,31.03,30.74,19,3,19,0.00
2013-11-11,50,40,31,40,27,20,84,61,40,31.02,30.76,10,2,10,0.00
2013-11-12,40,30,24,32,19,14,80,65,58,31.25,30.85,8,1,8,0.00
2013-11-13,49,30,20,22,12,-5,74,51,19,31.29,31.08,9,2,9,0.00
2013-11-14,59,38,26,20,11,2,54,36,19,31.08,30.86,12,3,12,0.00
2013-11-15,56,46,36,35,14,-2,59,29,19,30.92,30.82,10,2,10,0.00
2013-11-16,62,52,45,48,42,33,77,68,58,30.90,30.68,8,1,8,0.00
2013-11-17,61,57,53,58,51,37,91,80,49,30.69,30.25,20,4,20,0.00
2013-11-18,56,46,36,37,32,22,74,57,35,30.85,30.45,15,4,17,0.00
2013-11-19,52,37,31,27,21,15,61,51,36,31.07,30.84,7,0,7,0.00
2013-11-20,64,40,27,28,20,8,64,47,19,31.09,30.97,7,0,7,0.00
2013-11-21,59,47,39,36,28,18,58,47,40,31.07,30.91,7,1,7,0.00
2013-11-22,53,49,38,50,43,30,92,82,58,31.00,30.82,11,1,11,0.00
2013-11-23,40,31,20,30,19,3,76,60,42,31.16,30.94,16,2,16,0.00
2013-11-24,36,20,14,5,-3,-16,56,38,19,31.31,31.15,11,1,11,0.00
2013-11-25,38,27,16,14,0,-5,50,34,19,31.24,30.90,10,1,10,0.00
2013-11-26,36,33,29,28,25,14,83,73,40,30.91,30.55,21,0,21,0.00
2013-11-27,35,26,22,25,18,8,85,70,41,30.92,30.54,9,0,9,0.00
2013-11-28,37,26,18,21,13,9,69,60,47,31.13,30.92,8,1,8,0.00
2013-11-29,52,32,23,25,15,3,62,51,19,31.31,31.13,4,0,4,0.00
2013-11-30,56,35,25,29,19,8,64,52,29,31.25,30.90,8,1,8,0.00
2013-12-1,42,38,35,27,23,20,60,55,51,30.91,30.67,8,1,8,0.00
2013-12-2,50,41,36,36,30,24,74,64,56,30.67,30.52,5,0,5,0.00
2013-12-3,62,45,34,43,35,28,85,71,46,30.61,30.54,6,0,6,0.00
2013-12-4,69,54,44,50,43,37,81,69,46,30.66,30.51,10,1,10,0.00
2013-12-5,60,52,35,57,46,30,92,80,68,30.82,30.52,11,2,11,0.00
2013-12-6,35,32,27,30,28,22,85,83,81,31.03,30.78,7,0,7,0.00
2013-12-7,40,26,18,22,14,-3,81,61,19,31.28,31.01,1,0,1,0.00
2013-12-8,31,25,18,26,15,4,81,67,55,31.25,30.72,3,0,3,0.00
2013-12-9,34,31,26,32,25,16,98,78,66,30.90,30.68,10,3,10,0.00
2013-12-10,36,24,19,16,8,-9,73,53,19,31.02,30.79,16,2,16,0.00
2013-12-11,44,24,15,16,7,-3,63,51,19,31.14,30.94,10,3,10,0.00
2013-12-12,30,18,11,6,-6,-18,59,37,19,31.21,31.00,12,2,12,0.00
2013-12-13,48,28,16,12,3,-13,45,34,19,31.01,30.89,8,2,8,0.00
2013-12-14,38,34,30,35,25,10,91,71,39,30.90,30.41,9,1,9,0.00
2013-12-15,34,26,23,32,18,8,91,73,51,30.79,30.45,12,4,14,0.00
2013-12-16,32,26,23,22,16,11,75,67,60,30.85,30.70,8,0,8,0.00
2013-12-17,38,29,25,29,22,16,86,75,56,30.83,30.66,10,1,10,0.00
2013-12-18,41,29,24,18,15,4,74,58,27,30.93,30.78,14,3,14,0.00
2013-12-19,56,42,30,32,20,10,48,41,38,30.82,30.69,11,3,11,0.00
2013-12-20,57,52,47,50,36,22,82,58,34,30.70,30.57,11,4,11,0.00
2013-12-21,64,58,56,61,54,49,96,86,72,30.58,30.26,13,3,13,0.00
2013-12-22,67,57,49,59,49,40,92,76,60,30.69,30.21,13,4,16,0.00
2013-12-23,49,34,28,42,26,15,87,71,57,31.03,30.68,11,3,11,0.00
2013-12-24,28,19,13,16,5,-2,72,55,44,31.25,30.99,12,2,12,0.00
2013-12-25,33,23,14,15,5,-7,59,47,19,31.22,30.89,8,1,8,0.00
2013-12-26,44,32,28,21,14,-3,66,49,19,31.05,30.85,13,3,13,0.00
2013-12-27,57,37,28,26,18,8,56,46,27,31.10,30.98,8,3,8,0.00
2013-12-28,57,41,33,29,20,15,54,43,28,30.98,30.74,14,3,14,0.00
2013-12-29,42,39,35,39,30,18,90,72,38,30.74,30.46,11,2,11,0.00
2013-12-30,35,28,24,30,17,12,81,64,55,30.92,30.64,12,1,12,0.00
2013-12-31,29,24,21,14,10,7,66,56,49,31.03,30.82,13,3,13,0.00
2014-1-1,41,30,22,25,17,9,65,58,52,31.02,30.75,7,0,7,0.00
2014-1-2,31,25,10,23,15,-1,75,67,60,30.82,30.46,8,1,8,0.00